Cleveland, Ohio
Traffic Map
Current Weather Conditions
Cleveland, Ohio
Broken Clouds Light Rain
Broken Clouds
24°
Feels Like: 24°
Wind Chill: 24° Ceiling: 11000
Heat Index: 24° Visibility: 10mi
Dew Point: 20° Wind: 12mph
Humidity: 79% Direction: 220° (SW)
Pressure: 29.9in Gusts: 0mph
Raw Report DataKBKL 021353Z 22010KT 10SM -RA BKN110 24/20 A2990 RMK AO2 RAB43 SLP120 P0000 T02390200
Traffic Incident Summary
Active as of:
Severity:
Category:
InformationThere was an issue retrieving the traffic information for this location. Please try a different location or try again shortly.
Advertisements
Track Severe Weather on mobile